sensor_id;sensor_type;location;lat;lon;timestamp;P1;P2;P0
74436;PMS7003;62868;52.360;30.424;2022-10-23T00:03:44;1.3;1.3;1.3
74436;PMS7003;62868;52.360;30.424;2022-10-23T00:08:57;2.3;2.3;1.7
74436;PMS7003;62868;52.360;30.424;2022-10-23T00:14:22;2.3;1.5;1
74436;PMS7003;62868;52.360;30.424;2022-10-23T00:19:13;2;1;1
74436;PMS7003;62868;52.360;30.424;2022-10-23T00:24:06;2.3;1.7;1.3
74436;PMS7003;62868;52.360;30.424;2022-10-23T00:29:13;1.7;1;0.3
74436;PMS7003;62868;52.360;30.424;2022-10-23T00:33:46;1;0.8;0.5
74436;PMS7003;62868;52.360;30.424;2022-10-23T00:39:15;1;1;1
74436;PMS7003;62868;52.360;30.424;2022-10-23T00:45:08;2;0.7;0.7
74436;PMS7003;62868;52.360;30.424;2022-10-23T00:49:22;1.7;0.7;0.3
74436;PMS7003;62868;52.360;30.424;2022-10-23T00:54:03;0.5;0.3;0
74436;PMS7003;62868;52.360;30.424;2022-10-23T00:59:19;0.7;0.7;0.3
74436;PMS7003;62868;52.360;30.424;2022-10-23T01:04:06;1.7;1;0.3
74436;PMS7003;62868;52.360;30.424;2022-10-23T01:09:08;1.7;1.3;1
74436;PMS7003;62868;52.360;30.424;2022-10-23T01:14:22;2;1.3;0.8
74436;PMS7003;62868;52.360;30.424;2022-10-23T01:19:01;1;1;0.7
74436;PMS7003;62868;52.360;30.424;2022-10-23T01:24:24;1.7;1.3;1
74436;PMS7003;62868;52.360;30.424;2022-10-23T01:29:17;1;1;1
74436;PMS7003;62868;52.360;30.424;2022-10-23T01:34:12;0.8;0.8;0.5
74436;PMS7003;62868;52.360;30.424;2022-10-23T01:39:05;1;1;1
74436;PMS7003;62868;52.360;30.424;2022-10-23T01:43:44;1.7;1.3;1
74436;PMS7003;62868;52.360;30.424;2022-10-23T01:49:13;0.7;0.3;0
74436;PMS7003;62868;52.360;30.424;2022-10-23T01:53:58;2;1.8;1
74436;PMS7003;62868;52.360;30.424;2022-10-23T01:59:07;1;0.7;0.3
74436;PMS7003;62868;52.360;30.424;2022-10-23T02:04:22;0.7;0.7;0.3
74436;PMS7003;62868;52.360;30.424;2022-10-23T02:09:13;1.5;0.8;0.5
74436;PMS7003;62868;52.360;30.424;2022-10-23T02:14:09;2.3;1.3;0.7
74436;PMS7003;62868;52.360;30.424;2022-10-23T02:18:59;1.7;0.7;0.7
74436;PMS7003;62868;52.360;30.424;2022-10-23T02:24:16;0.3;0;0
74436;PMS7003;62868;52.360;30.424;2022-10-23T02:29:04;1;0.8;0.3
74436;PMS7003;62868;52.360;30.424;2022-10-23T02:33:59;0.7;0.7;0.3
74436;PMS7003;62868;52.360;30.424;2022-10-23T02:38:57;2;1;1
74436;PMS7003;62868;52.360;30.424;2022-10-23T02:44:09;0.7;0.7;0.3
74436;PMS7003;62868;52.360;30.424;2022-10-23T02:49:17;2.3;1.3;0.3
74436;PMS7003;62868;52.360;30.424;2022-10-23T02:54:04;1;1;0.7
74436;PMS7003;62868;52.360;30.424;2022-10-23T02:59:17;1.3;0;0
74436;PMS7003;62868;52.360;30.424;2022-10-23T03:04:26;1;0.7;0.7
74436;PMS7003;62868;52.360;30.424;2022-10-23T03:09:13;0.8;0.5;0.5
74436;PMS7003;62868;52.360;30.424;2022-10-23T03:14:13;0.7;0;0
74436;PMS7003;62868;52.360;30.424;2022-10-23T03:19:15;0.7;0.7;0.3
74436;PMS7003;62868;52.360;30.424;2022-10-23T03:23:43;1;0.7;0.7
74436;PMS7003;62868;52.360;30.424;2022-10-23T03:28:43;1.5;1;1
74436;PMS7003;62868;52.360;30.424;2022-10-23T03:33:43;1.3;1;0.3
74436;PMS7003;62868;52.360;30.424;2022-10-23T03:39:23;1.3;1.3;1
74436;PMS7003;62868;52.360;30.424;2022-10-23T03:44:25;1.3;1;0.7
74436;PMS7003;62868;52.360;30.424;2022-10-23T03:49:08;1.8;1.5;1
74436;PMS7003;62868;52.360;30.424;2022-10-23T03:54:24;1;0.7;0.7
74436;PMS7003;62868;52.360;30.424;2022-10-23T03:59:07;2;1;0.7
74436;PMS7003;62868;52.360;30.424;2022-10-23T04:04:15;1;0.8;0.5
74436;PMS7003;62868;52.360;30.424;2022-10-23T04:09:08;2;1;0.7
74436;PMS7003;62868;52.360;30.424;2022-10-23T04:13:57;1.7;0.7;0.7
74436;PMS7003;62868;52.360;30.424;2022-10-23T04:18:57;1.3;1.3;0.7
74436;PMS7003;62868;52.360;30.424;2022-10-23T04:24:07;1;1;0.5
74436;PMS7003;62868;52.360;30.424;2022-10-23T04:29:15;1.3;1;1
74436;PMS7003;62868;52.360;30.424;2022-10-23T04:34:25;1.3;1;0.3
74436;PMS7003;62868;52.360;30.424;2022-10-23T04:39:15;1.7;0.7;0.7
74436;PMS7003;62868;52.360;30.424;2022-10-23T04:44:17;1.3;0.8;0.5
74436;PMS7003;62868;52.360;30.424;2022-10-23T04:49:07;1;1;0.7
74436;PMS7003;62868;52.360;30.424;2022-10-23T04:54:23;1.3;0.7;0.3
74436;PMS7003;62868;52.360;30.424;2022-10-23T04:59:25;1.3;1.3;0.7
74436;PMS7003;62868;52.360;30.424;2022-10-23T05:04:25;1.5;1;0.5
74436;PMS7003;62868;52.360;30.424;2022-10-23T05:08:57;1;0.7;0.7
74436;PMS7003;62868;52.360;30.424;2022-10-23T05:13:55;1.7;0.3;0
74436;PMS7003;62868;52.360;30.424;2022-10-23T05:19:25;0.7;0.7;0.7
74436;PMS7003;62868;52.360;30.424;2022-10-23T05:24:15;1;0.8;0.3
74436;PMS7003;62868;52.360;30.424;2022-10-23T05:29:13;1;1;0.3
74436;PMS7003;62868;52.360;30.424;2022-10-23T05:34:14;0.3;0.3;0.3
74436;PMS7003;62868;52.360;30.424;2022-10-23T05:39:16;0.3;0;0
74436;PMS7003;62868;52.360;30.424;2022-10-23T05:44:07;0.5;0.5;0.3
74436;PMS7003;62868;52.360;30.424;2022-10-23T05:49:15;1;1;0
74436;PMS7003;62868;52.360;30.424;2022-10-23T05:54:25;0.7;0.7;0.7
74436;PMS7003;62868;52.360;30.424;2022-10-23T05:58:59;0.8;0.8;0.5
74436;PMS7003;62868;52.360;30.424;2022-10-23T06:03:57;1;1;0.7
74436;PMS7003;62868;52.360;30.424;2022-10-23T06:09:24;0.7;0.7;0.3
74436;PMS7003;62868;52.360;30.424;2022-10-23T06:13:45;0.7;0.7;0
74436;PMS7003;62868;52.360;30.424;2022-10-23T06:19:25;0.8;0.8;0.5
74436;PMS7003;62868;52.360;30.424;2022-10-23T06:24:07;1.3;0;0
74436;PMS7003;62868;52.360;30.424;2022-10-23T06:29:16;1.7;0.3;0
74436;PMS7003;62868;52.360;30.424;2022-10-23T06:34:17;0.3;0.3;0
74436;PMS7003;62868;52.360;30.424;2022-10-23T06:38:57;1;0.8;0
74436;PMS7003;62868;52.360;30.424;2022-10-23T06:44:15;1;1;1
74436;PMS7003;62868;52.360;30.424;2022-10-23T06:49:16;0.7;0.3;0.3
74436;PMS7003;62868;52.360;30.424;2022-10-23T06:53:44;0.7;0.7;0.3
74436;PMS7003;62868;52.360;30.424;2022-10-23T06:59:03;0.8;0.8;0.3
74436;PMS7003;62868;52.360;30.424;2022-10-23T07:04:05;1.3;0.7;0
74436;PMS7003;62868;52.360;30.424;2022-10-23T07:09:23;0.3;0;0
74436;PMS7003;62868;52.360;30.424;2022-10-23T07:14:24;0.7;0.7;0
74436;PMS7003;62868;52.360;30.424;2022-10-23T07:18:44;0.5;0.3;0.3
74436;PMS7003;62868;52.360;30.424;2022-10-23T07:24:26;0;0;0
74436;PMS7003;62868;52.360;30.424;2022-10-23T07:29:26;0.7;0.3;0
74436;PMS7003;62868;52.360;30.424;2022-10-23T07:34:24;1;0.3;0
74436;PMS7003;62868;52.360;30.424;2022-10-23T07:38:56;0.5;0;0
74436;PMS7003;62868;52.360;30.424;2022-10-23T07:43:58;0;0;0
74436;PMS7003;62868;52.360;30.424;2022-10-23T07:49:24;0.3;0;0
74436;PMS7003;62868;52.360;30.424;2022-10-23T07:54:14;0.3;0;0
74436;PMS7003;62868;52.360;30.424;2022-10-23T07:59:04;0.3;0.3;0
74436;PMS7003;62868;52.360;30.424;2022-10-23T08:03:52;0.3;0.3;0.3
74436;PMS7003;62868;52.360;30.424;2022-10-23T08:09:16;0.3;0;0
74436;PMS7003;62868;52.360;30.424;2022-10-23T08:14:14;0;0;0
74436;PMS7003;62868;52.360;30.424;2022-10-23T08:19:08;0.5;0;0
74436;PMS7003;62868;52.360;30.424;2022-10-23T08:24:24;0.3;0;0
74436;PMS7003;62868;52.360;30.424;2022-10-23T08:29:06;0.3;0.3;0.3
74436;PMS7003;62868;52.360;30.424;2022-10-23T08:33:58;0.3;0.3;0.3
74436;PMS7003;62868;52.360;30.424;2022-10-23T08:39:24;1;0.8;0.8
74436;PMS7003;62868;52.360;30.424;2022-10-23T08:44:17;1;0.7;0.3
74436;PMS7003;62868;52.360;30.424;2022-10-23T08:49:27;1.3;1;0.3
74436;PMS7003;62868;52.360;30.424;2022-10-23T08:53:53;1.3;1;0
74436;PMS7003;62868;52.360;30.424;2022-10-23T08:59:14;0.8;0.8;0.3
74436;PMS7003;62868;52.360;30.424;2022-10-23T09:04:16;1.3;1;0.7
74436;PMS7003;62868;52.360;30.424;2022-10-23T09:09:11;0.7;0.7;0.3
74436;PMS7003;62868;52.360;30.424;2022-10-23T09:14:14;2;1.3;0.7
74436;PMS7003;62868;52.360;30.424;2022-10-23T09:18:44;1.8;1.3;1.3
74436;PMS7003;62868;52.360;30.424;2022-10-23T09:24:09;2;1;1
74436;PMS7003;62868;52.360;30.424;2022-10-23T09:29:05;1.7;1.3;1
74436;PMS7003;62868;52.360;30.424;2022-10-23T09:33:54;0.7;0.7;0.7
74436;PMS7003;62868;52.360;30.424;2022-10-23T09:39:23;1.3;1;0.8
74436;PMS7003;62868;52.360;30.424;2022-10-23T09:44:23;1;0.7;0.3
74436;PMS7003;62868;52.360;30.424;2022-10-23T09:49:12;1;0.7;0.7
74436;PMS7003;62868;52.360;30.424;2022-10-23T09:54:09;0.3;0.3;0.3
74436;PMS7003;62868;52.360;30.424;2022-10-23T09:59:18;0.5;0.5;0.3
74436;PMS7003;62868;52.360;30.424;2022-10-23T10:04:16;0.3;0.3;0
74436;PMS7003;62868;52.360;30.424;2022-10-23T10:09:14;1;0.7;0.3
74436;PMS7003;62868;52.360;30.424;2022-10-23T10:14:20;1;0.8;0.5
74436;PMS7003;62868;52.360;30.424;2022-10-23T10:19:19;1.7;1.3;0.7
74436;PMS7003;62868;52.360;30.424;2022-10-23T10:24:16;1;1;1
74436;PMS7003;62868;52.360;30.424;2022-10-23T10:29:07;0.7;0.7;0
74436;PMS7003;62868;52.360;30.424;2022-10-23T10:34:16;1.5;1;0.8
74436;PMS7003;62868;52.360;30.424;2022-10-23T10:39:17;1.7;1.3;1
74436;PMS7003;62868;52.360;30.424;2022-10-23T10:44:17;1;1;0.3
74436;PMS7003;62868;52.360;30.424;2022-10-23T10:49:15;1.3;1.3;0.7
74436;PMS7003;62868;52.360;30.424;2022-10-23T10:54:17;1.3;1.3;0.8
74436;PMS7003;62868;52.360;30.424;2022-10-23T10:59:05;1.3;1;0.7
74436;PMS7003;62868;52.360;30.424;2022-10-23T11:03:44;1.7;1.3;1
74436;PMS7003;62868;52.360;30.424;2022-10-23T11:08:50;1.7;1.7;1.7
74436;PMS7003;62868;52.360;30.424;2022-10-23T11:14:24;2.5;1.5;1
74436;PMS7003;62868;52.360;30.424;2022-10-23T11:19:24;2;1.7;1.3
74436;PMS7003;62868;52.360;30.424;2022-10-23T11:24:08;1.7;1.3;0.7
74436;PMS7003;62868;52.360;30.424;2022-10-23T11:29:43;1.7;1.3;1
74436;PMS7003;62868;52.360;30.424;2022-10-23T11:34:11;1;1;1
74436;PMS7003;62868;52.360;30.424;2022-10-23T11:38:50;1.3;1.3;0.7
74436;PMS7003;62868;52.360;30.424;2022-10-23T11:43:58;1.5;1.5;1
74436;PMS7003;62868;52.360;30.424;2022-10-23T11:48:44;1;1;1
74436;PMS7003;62868;52.360;30.424;2022-10-23T11:54:24;2.3;1.3;1
74436;PMS7003;62868;52.360;30.424;2022-10-23T11:59:18;1.7;1;0.7
74436;PMS7003;62868;52.360;30.424;2022-10-23T12:04:05;0.8;0.8;0.5
74436;PMS7003;62868;52.360;30.424;2022-10-23T12:09:23;1.3;0.7;0.3
74436;PMS7003;62868;52.360;30.424;2022-10-23T12:14:30;1;0.7;0.3
74436;PMS7003;62868;52.360;30.424;2022-10-23T12:19:14;2.3;1.3;0.3
74436;PMS7003;62868;52.360;30.424;2022-10-23T12:25:15;0.5;0.5;0
74436;PMS7003;62868;52.360;30.424;2022-10-23T12:29:20;1;1;1
74436;PMS7003;62868;52.360;30.424;2022-10-23T12:34:23;0.3;0.3;0.3
74436;PMS7003;62868;52.360;30.424;2022-10-23T12:38:44;1.7;1;0.3
74436;PMS7003;62868;52.360;30.424;2022-10-23T12:44:01;0.5;0.5;0.3
74436;PMS7003;62868;52.360;30.424;2022-10-23T12:49:12;0.7;0.3;0
74436;PMS7003;62868;52.360;30.424;2022-10-23T12:54:15;0.7;0.7;0.7
74436;PMS7003;62868;52.360;30.424;2022-10-23T12:59:35;2;1;1
74436;PMS7003;62868;52.360;30.424;2022-10-23T13:04:16;0.5;0.3;0.3
74436;PMS7003;62868;52.360;30.424;2022-10-23T13:09:18;1;0.7;0.7
74436;PMS7003;62868;52.360;30.424;2022-10-23T13:14:10;1.3;1;0.7
74436;PMS7003;62868;52.360;30.424;2022-10-23T13:19:22;1;1;0.7
74436;PMS7003;62868;52.360;30.424;2022-10-23T13:24:26;1.8;1.5;1
74436;PMS7003;62868;52.360;30.424;2022-10-23T13:28:44;1.7;1;0.7
74436;PMS7003;62868;52.360;30.424;2022-10-23T13:34:26;1.7;1.3;1
74436;PMS7003;62868;52.360;30.424;2022-10-23T13:38:44;1.8;1.3;1
74436;PMS7003;62868;52.360;30.424;2022-10-23T13:44:26;1;1;0.7
74436;PMS7003;62868;52.360;30.424;2022-10-23T13:49:26;1.7;1.7;1
74436;PMS7003;62868;52.360;30.424;2022-10-23T13:54:10;1.3;1;0.7
74436;PMS7003;62868;52.360;30.424;2022-10-23T13:59:26;1.5;1;1
74436;PMS7003;62868;52.360;30.424;2022-10-23T14:04:14;1.7;1;1
74436;PMS7003;62868;52.360;30.424;2022-10-23T14:08:52;2;1.7;1
74436;PMS7003;62868;52.360;30.424;2022-10-23T14:14:24;1;0.7;0.7
74436;PMS7003;62868;52.360;30.424;2022-10-23T14:18:45;1;0.8;0.8
74436;PMS7003;62868;52.360;30.424;2022-10-23T14:23:58;0.7;0.7;0.7
74436;PMS7003;62868;52.360;30.424;2022-10-23T14:28:44;0.3;0.3;0.3
74436;PMS7003;62868;52.360;30.424;2022-10-23T14:34:14;1;1;1
74436;PMS7003;62868;52.360;30.424;2022-10-23T14:39:00;1.5;1.3;1
74436;PMS7003;62868;52.360;30.424;2022-10-23T14:44:18;1.3;0.7;0.7
74436;PMS7003;62868;52.360;30.424;2022-10-23T14:48:52;1.3;1;1
74436;PMS7003;62868;52.360;30.424;2022-10-23T14:54:08;1;1;1
74436;PMS7003;62868;52.360;30.424;2022-10-23T14:59:18;1;0.8;0.5
74436;PMS7003;62868;52.360;30.424;2022-10-23T15:04:18;1.3;1.3;1
74436;PMS7003;62868;52.360;30.424;2022-10-23T15:08:44;1.7;1;0.3
74436;PMS7003;62868;52.360;30.424;2022-10-23T15:13:44;0.3;0.3;0
74436;PMS7003;62868;52.360;30.424;2022-10-23T15:19:06;0.5;0.3;0.3
74436;PMS7003;62868;52.360;30.424;2022-10-23T15:24:06;0.7;0.7;0.7
74436;PMS7003;62868;52.360;30.424;2022-10-23T15:28:44;1.7;1.3;1
74436;PMS7003;62868;52.360;30.424;2022-10-23T15:34:15;0.8;0.3;0.3
74436;PMS7003;62868;52.360;30.424;2022-10-23T15:39:10;1;0.7;0
74436;PMS7003;62868;52.360;30.424;2022-10-23T15:44:15;0.7;0.7;0.7
74436;PMS7003;62868;52.360;30.424;2022-10-23T15:49:16;0.7;0.7;0
74436;PMS7003;62868;52.360;30.424;2022-10-23T15:54:26;0.5;0.5;0.5
74436;PMS7003;62868;52.360;30.424;2022-10-23T15:58:58;1;0.3;0
74436;PMS7003;62868;52.360;30.424;2022-10-23T16:03:54;0.3;0.3;0.3
74436;PMS7003;62868;52.360;30.424;2022-10-23T16:08:56;1.7;0.3;0
74436;PMS7003;62868;52.360;30.424;2022-10-23T16:14:24;0.8;0.8;0.5
74436;PMS7003;62868;52.360;30.424;2022-10-23T16:19:22;0.3;0;0
74436;PMS7003;62868;52.360;30.424;2022-10-23T16:24:16;0.3;0;0
74436;PMS7003;62868;52.360;30.424;2022-10-23T16:29:24;1;0.3;0
74436;PMS7003;62868;52.360;30.424;2022-10-23T16:34:16;0.8;0.3;0
74436;PMS7003;62868;52.360;30.424;2022-10-23T16:39:15;0.7;0.7;0.3
74436;PMS7003;62868;52.360;30.424;2022-10-23T16:44:08;1;0.7;0.3
74436;PMS7003;62868;52.360;30.424;2022-10-23T16:48:58;0.7;0.7;0.3
74436;PMS7003;62868;52.360;30.424;2022-10-23T16:53:58;0.8;0.5;0
74436;PMS7003;62868;52.360;30.424;2022-10-23T16:59:14;1;0.7;0.3
74436;PMS7003;62868;52.360;30.424;2022-10-23T17:03:58;0.7;0.3;0
74436;PMS7003;62868;52.360;30.424;2022-10-23T17:09:26;0.7;0.3;0
74436;PMS7003;62868;52.360;30.424;2022-10-23T17:14:18;0.8;0;0
74436;PMS7003;62868;52.360;30.424;2022-10-23T17:19:09;0.7;0.7;0
74436;PMS7003;62868;52.360;30.424;2022-10-23T17:23:52;0.3;0;0
74436;PMS7003;62868;52.360;30.424;2022-10-23T17:29:18;0.8;0.5;0.3
74436;PMS7003;62868;52.360;30.424;2022-10-23T17:34:24;1;0.7;0
74436;PMS7003;62868;52.360;30.424;2022-10-23T17:38:56;0.7;0.3;0
74436;PMS7003;62868;52.360;30.424;2022-10-23T17:43:44;0.3;0;0
74436;PMS7003;62868;52.360;30.424;2022-10-23T17:48:44;0.5;0.3;0
74436;PMS7003;62868;52.360;30.424;2022-10-23T17:54:16;0.3;0.3;0
74436;PMS7003;62868;52.360;30.424;2022-10-23T17:58:44;1.3;0.7;0.7
74436;PMS7003;62868;52.360;30.424;2022-10-23T18:04:15;0.3;0;0
74436;PMS7003;62868;52.360;30.424;2022-10-23T18:09:14;0.8;0.5;0
74436;PMS7003;62868;52.360;30.424;2022-10-23T18:14:19;0.3;0.3;0
74436;PMS7003;62868;52.360;30.424;2022-10-23T18:19:16;1;0.3;0.3
74436;PMS7003;62868;52.360;30.424;2022-10-23T18:24:26;0.7;0.7;0.3
74436;PMS7003;62868;52.360;30.424;2022-10-23T18:29:16;0.5;0.3;0.3
74436;PMS7003;62868;52.360;30.424;2022-10-23T18:34:01;1.3;1;0.7
74436;PMS7003;62868;52.360;30.424;2022-10-23T18:38:44;0.7;0.7;0.3
74436;PMS7003;62868;52.360;30.424;2022-10-23T18:44:26;0.7;0.7;0
74436;PMS7003;62868;52.360;30.424;2022-10-23T18:49:24;0.3;0.3;0.3
74436;PMS7003;62868;52.360;30.424;2022-10-23T18:53:52;1;1;0.7
74436;PMS7003;62868;52.360;30.424;2022-10-23T18:59:26;0.3;0.3;0
74436;PMS7003;62868;52.360;30.424;2022-10-23T19:04:16;0.3;0.3;0.3
74436;PMS7003;62868;52.360;30.424;2022-10-23T19:09:06;1;0.7;0
74436;PMS7003;62868;52.360;30.424;2022-10-23T19:14:06;0.3;0.3;0
74436;PMS7003;62868;52.360;30.424;2022-10-23T19:18:56;0.3;0;0
74436;PMS7003;62868;52.360;30.424;2022-10-23T19:23:44;0.3;0;0
74436;PMS7003;62868;52.360;30.424;2022-10-23T19:28:58;0.3;0.3;0
74436;PMS7003;62868;52.360;30.424;2022-10-23T19:33:44;0.3;0;0
74436;PMS7003;62868;52.360;30.424;2022-10-23T19:39:14;0.3;0.3;0
74436;PMS7003;62868;52.360;30.424;2022-10-23T19:44:26;0.3;0.3;0
74436;PMS7003;62868;52.360;30.424;2022-10-23T19:49:24;0.3;0;0
74436;PMS7003;62868;52.360;30.424;2022-10-23T19:54:08;0.3;0;0
74436;PMS7003;62868;52.360;30.424;2022-10-23T19:59:26;0;0;0
74436;PMS7003;62868;52.360;30.424;2022-10-23T20:04:26;1;0;0
74436;PMS7003;62868;52.360;30.424;2022-10-23T20:09:22;0;0;0
74436;PMS7003;62868;52.360;30.424;2022-10-23T20:14:14;0.7;0.3;0
74436;PMS7003;62868;52.360;30.424;2022-10-23T20:19:05;0.3;0;0
74436;PMS7003;62868;52.360;30.424;2022-10-23T20:24:26;0;0;0
74436;PMS7003;62868;52.360;30.424;2022-10-23T20:29:16;0.7;0.7;0
74436;PMS7003;62868;52.360;30.424;2022-10-23T20:34:06;1;0;0
74436;PMS7003;62868;52.360;30.424;2022-10-23T20:38:46;0.5;0;0
74436;PMS7003;62868;52.360;30.424;2022-10-23T20:44:18;0.3;0;0
74436;PMS7003;62868;52.360;30.424;2022-10-23T20:48:56;0.7;0;0
74436;PMS7003;62868;52.360;30.424;2022-10-23T20:54:16;0;0;0
74436;PMS7003;62868;52.360;30.424;2022-10-23T20:59:26;0.7;0.3;0
74436;PMS7003;62868;52.360;30.424;2022-10-23T21:03:48;0.3;0.3;0
74436;PMS7003;62868;52.360;30.424;2022-10-23T21:08:44;0;0;0
74436;PMS7003;62868;52.360;30.424;2022-10-23T21:14:10;0.3;0.3;0
74436;PMS7003;62868;52.360;30.424;2022-10-23T21:19:14;0.7;0;0
74436;PMS7003;62868;52.360;30.424;2022-10-23T21:24:26;0.3;0.3;0
74436;PMS7003;62868;52.360;30.424;2022-10-23T21:29:08;0;0;0
74436;PMS7003;62868;52.360;30.424;2022-10-23T21:34:14;0.3;0;0
74436;PMS7003;62868;52.360;30.424;2022-10-23T21:39:26;0.7;0;0
74436;PMS7003;62868;52.360;30.424;2022-10-23T21:44:06;0.7;0.3;0
74436;PMS7003;62868;52.360;30.424;2022-10-23T21:49:08;0;0;0
74436;PMS7003;62868;52.360;30.424;2022-10-23T21:54:09;0;0;0
74436;PMS7003;62868;52.360;30.424;2022-10-23T21:58:52;1;0;0
74436;PMS7003;62868;52.360;30.424;2022-10-23T22:04:06;0.3;0;0
74436;PMS7003;62868;52.360;30.424;2022-10-23T22:09:14;0;0;0
74436;PMS7003;62868;52.360;30.424;2022-10-23T22:14:26;1;0.3;0
74436;PMS7003;62868;52.360;30.424;2022-10-23T22:19:26;0;0;0
74436;PMS7003;62868;52.360;30.424;2022-10-23T22:24:08;0;0;0
74436;PMS7003;62868;52.360;30.424;2022-10-23T22:29:27;0;0;0
74436;PMS7003;62868;52.360;30.424;2022-10-23T22:34:27;0.3;0;0
74436;PMS7003;62868;52.360;30.424;2022-10-23T22:39:24;0;0;0
74436;PMS7003;62868;52.360;30.424;2022-10-23T22:43:58;0;0;0
74436;PMS7003;62868;52.360;30.424;2022-10-23T22:48:58;0;0;0
74436;PMS7003;62868;52.360;30.424;2022-10-23T22:54:24;0.3;0;0
74436;PMS7003;62868;52.360;30.424;2022-10-23T22:59:14;0.3;0;0
74436;PMS7003;62868;52.360;30.424;2022-10-23T23:03:50;0.7;0;0
74436;PMS7003;62868;52.360;30.424;2022-10-23T23:09:16;0.3;0;0
74436;PMS7003;62868;52.360;30.424;2022-10-23T23:14:18;0.3;0;0
74436;PMS7003;62868;52.360;30.424;2022-10-23T23:19:08;0.3;0;0
74436;PMS7003;62868;52.360;30.424;2022-10-23T23:24:14;0.3;0;0
74436;PMS7003;62868;52.360;30.424;2022-10-23T23:29:20;0;0;0
74436;PMS7003;62868;52.360;30.424;2022-10-23T23:33:44;0;0;0
74436;PMS7003;62868;52.360;30.424;2022-10-23T23:38:58;0;0;0
74436;PMS7003;62868;52.360;30.424;2022-10-23T23:44:22;0;0;0
74436;PMS7003;62868;52.360;30.424;2022-10-23T23:49:14;0;0;0
74436;PMS7003;62868;52.360;30.424;2022-10-23T23:54:22;0;0;0
74436;PMS7003;62868;52.360;30.424;2022-10-23T23:59:06;0.3;0;0
